• Join FlightAware (Why Join?)
  • Login
  • US Flag 
07:46AM EST


 

Airport Tracker/Info


-or-


 

Live Flight TrackerFlight Track Log ✈ CHH7087 ✈ 05-Aug-2014 ✈ ZJHK / HAK - ZPPP / KMG

Flight Track Log - Related Links

Times and Time Zones

All times are in EDT time to prevent confusion due to time zone crossing. See the CHH7087 flight status page for this flight to view local times or setup timezone preferences in your user account.

Time Position Orientation Groundspeed Altitude Reporting Facility
EDT Latitude Longitude Course Direction KTS MPH feet Rate Location/Type
08:52PM 22.5121 106.8375 308° West  Level Estimated
08:53PM 22.5618 106.7652 307° West  Level Estimated
08:54PM 22.6115 106.6928 307° West  Level Estimated
08:55PM 22.6612 106.6204 307° West  Level Estimated
08:56PM 22.7108 106.5479 307° West  Level Estimated
08:57PM 22.7605 106.4754 307° West  Level Estimated
08:58PM 22.8100 106.4028 307° West  Level Estimated
08:59PM 22.8596 106.3302 307° West  Level Estimated
09:00PM 22.9091 106.2576 306° West  Level Estimated
09:01PM 22.9586 106.1848 306° West  Level Estimated
09:02PM 23.0080 106.1120 306° West  Level Estimated
09:03PM 23.0574 106.0392 306° West  Level Estimated
09:04PM 23.1068 105.9663 306° West  Level Estimated
09:05PM 23.1561 105.8934 306° West  Level Estimated
09:06PM 23.2055 105.8204 306° West  Level Estimated
09:07PM 23.2547 105.7473 306° West  Level Estimated
09:08PM 23.3040 105.6742 306° West  Level Estimated
09:09PM 23.3532 105.6011 306° West  Level Estimated
09:10PM 23.4023 105.5279 306° West  Level Estimated
09:11PM 23.4515 105.4546 306° West  Level Estimated
09:12PM 23.5006 105.3813 306° West  Level Estimated
09:13PM 23.5497 105.3079 306° West  Level Estimated
09:14PM 23.5987 105.2345 306° West  Level Estimated
09:15PM 23.6477 105.1610 306° West  Level Estimated
09:16PM 23.6967 105.0875 306° West  Level Estimated
09:17PM 23.7456 105.0139 306° West  Level Estimated
09:18PM 23.7945 104.9402 306° West  Level Estimated
09:19PM 23.8434 104.8665 306° West  Level Estimated
09:20PM 23.8922 104.7928 306° West  Level Estimated
09:21PM 23.9410 104.7189 306° West  Level Estimated
09:22PM 23.9897 104.6451 306° West  Level Estimated
09:23PM 24.0385 104.5712 306° West  Level Estimated
09:24PM 24.0872 104.4972 306° West  Level Estimated
09:25PM 24.1358 104.4231 306° West  Level Estimated
09:26PM 24.1844 104.3490 306° West  Level Estimated
09:27PM 24.2330 104.2749 306° West  Level Estimated
09:28PM 24.2816 104.2007 306° West  Level Estimated
09:29PM 24.3301 104.1264 306° West  Level Estimated
09:30PM 24.3785 104.0521 306° West  Level Estimated
09:31PM 24.4270 103.9777 306° West  Level Estimated
09:32PM 24.4754 103.9033 306° West  Level Estimated
09:33PM 24.5237 103.8288 306° West  Level Estimated
09:34PM 24.5721 103.7542 305° West  Level Estimated
09:35PM 24.6203 103.6796 305° West  Level Estimated
09:36PM 24.6686 103.6049 305° West  Level Estimated
09:37PM 24.7168 103.5302 305° West  Level Estimated
09:38PM 24.7650 103.4554 305° West  Level Estimated
09:39PM 24.8131 103.3806 305° West  Level Estimated
09:40PM 24.8612 103.3057 305° West  Level Estimated
09:41PM 24.9093 103.2307 305° West  Level Estimated
09:42PM 24.9573 103.1557 305° West  Level Estimated
09:43PM 25.0053 103.0807 305° West  Level Estimated
09:44PM 25.0533 103.0055 305° West  Level Estimated
09:45PM 25.1012 102.9303 305° West  Level Estimated
09:46PM 25.1019 102.9292 305° West  Level Estimated
09:47PM 25.1019 102.9292 North  Level Estimated
09:48PM 25.1019 102.9292 North  Level Estimated
09:49PM 25.1019 102.9292 North  Level Estimated
09:50PM 25.1019 102.9292 North  Level Estimated
09:51PM 25.1019 102.9292 North  Level Estimated
09:52PM 25.1019 102.9292 North  Level Estimated
09:53PM 25.1019 102.9292 North  Level Estimated
09:54PM 25.1019 102.9292 North  Level Estimated
09:55PM 25.1019 102.9292 North  Level Estimated
09:56PM 25.1019 102.9292 North  Level Estimated
09:57PM 25.1019 102.9292 North  Level Estimated
09:58PM 25.1019 102.9292 North  Level Estimated
09:59PM 25.1019 102.9292 North  Level Estimated
10:00PM 25.1019 102.9292 North  Level Estimated
10:01PM 25.1019 102.9292 North  Level Estimated